createdAt,value
2022-09-26T00:01:20.529Z,2.33
2022-09-26T00:03:53.717Z,2.42
2022-09-26T00:06:23.153Z,2.65
2022-09-26T00:08:52.309Z,2.50
2022-09-26T00:11:23.227Z,2.63
2022-09-26T00:13:54.129Z,2.47
2022-09-26T00:16:22.632Z,2.60
2022-09-26T00:18:53.385Z,2.35
2022-09-26T00:21:22.359Z,2.22
2022-09-26T00:23:50.764Z,2.60
2022-09-26T00:26:20.584Z,2.50
2022-09-26T00:28:49.396Z,2.80
2022-09-26T00:31:20.534Z,2.25
2022-09-26T00:33:49.000Z,2.20
2022-09-26T00:36:19.168Z,1.95
2022-09-26T00:38:47.868Z,2.25
2022-09-26T00:41:17.159Z,1.67
2022-09-26T00:43:48.270Z,2.15
2022-09-26T00:46:35.456Z,1.52
2022-09-26T00:49:15.783Z,2.05
2022-09-26T00:51:53.828Z,2.38
2022-09-26T00:54:21.825Z,2.30
2022-09-26T00:56:53.369Z,2.17
2022-09-26T00:59:26.259Z,2.00
2022-09-26T01:01:57.466Z,1.98
2022-09-26T01:04:27.869Z,2.13
2022-09-26T01:06:59.354Z,2.00
2022-09-26T01:09:28.367Z,1.88
2022-09-26T01:11:58.190Z,1.77
2022-09-26T01:14:26.347Z,2.00
2022-09-26T01:16:54.604Z,2.08
2022-09-26T01:19:30.219Z,1.90
2022-09-26T01:22:37.709Z,1.67
2022-09-26T01:25:23.693Z,1.98
2022-09-26T01:28:05.651Z,2.00
2022-09-26T01:30:43.373Z,2.30
2022-09-26T01:33:34.300Z,2.00
2022-09-26T01:36:29.891Z,2.08
2022-09-26T01:39:14.471Z,1.85
2022-09-26T01:41:51.892Z,1.63
2022-09-26T01:44:30.999Z,1.98
2022-09-26T01:47:07.045Z,1.70
2022-09-26T01:49:44.762Z,1.60
2022-09-26T01:52:20.624Z,1.92
2022-09-26T01:54:55.487Z,1.90
2022-09-26T01:57:29.722Z,2.10
2022-09-26T02:00:01.153Z,2.25
2022-09-26T02:02:37.104Z,2.20
2022-09-26T02:05:09.143Z,2.10
2022-09-26T02:07:44.064Z,1.95
2022-09-26T02:10:17.708Z,1.98
2022-09-26T02:12:55.051Z,1.80
2022-09-26T02:15:26.449Z,2.10
2022-09-26T02:18:02.051Z,2.10
2022-09-26T02:20:33.177Z,1.92
2022-09-26T02:23:04.141Z,1.90
2022-09-26T02:25:32.828Z,2.00
2022-09-26T02:28:01.373Z,1.85
2022-09-26T02:30:30.292Z,2.03
2022-09-26T02:33:02.124Z,1.95
2022-09-26T02:36:03.843Z,1.63
2022-09-26T02:38:33.663Z,1.45
2022-09-26T02:41:22.523Z,1.48
2022-09-26T02:44:12.978Z,1.70
2022-09-26T02:47:05.879Z,1.75
2022-09-26T02:49:50.756Z,2.40
2022-09-26T02:52:32.665Z,1.63
2022-09-26T02:55:11.454Z,1.15
2022-09-26T02:57:49.905Z,1.45
2022-09-26T03:00:22.423Z,1.38
2022-09-26T03:02:58.121Z,1.45
2022-09-26T03:05:30.979Z,1.60
2022-09-26T03:08:06.417Z,1.30
2022-09-26T03:10:35.494Z,1.50
2022-09-26T03:13:08.220Z,1.60
2022-09-26T03:15:38.549Z,1.73
2022-09-26T03:18:11.644Z,1.98
2022-09-26T03:20:41.897Z,1.48
2022-09-26T03:23:10.028Z,1.40
2022-09-26T03:25:38.655Z,1.50
2022-09-26T03:28:10.631Z,1.45
2022-09-26T03:30:39.775Z,1.80
2022-09-26T03:33:25.942Z,1.58
2022-09-26T03:35:59.512Z,1.50
2022-09-26T03:38:28.072Z,1.65
2022-09-26T03:41:07.267Z,1.25
2022-09-26T03:43:57.400Z,1.40
2022-09-26T03:46:28.671Z,1.65
2022-09-26T03:48:56.894Z,1.50
2022-09-26T03:51:26.570Z,1.25
2022-09-26T03:53:54.519Z,1.55
2022-09-26T03:56:26.870Z,1.02
2022-09-26T03:58:55.085Z,1.00
2022-09-26T04:01:24.746Z,1.25
2022-09-26T04:03:52.738Z,1.25
2022-09-26T04:06:21.590Z,1.02
2022-09-26T04:08:54.130Z,1.05
2022-09-26T04:11:24.632Z,0.95
2022-09-26T04:13:54.135Z,0.95
2022-09-26T04:16:25.616Z,1.17
2022-09-26T04:18:59.982Z,1.42
2022-09-26T04:21:29.850Z,1.02
2022-09-26T04:24:01.094Z,1.10
2022-09-26T04:26:29.207Z,1.27
2022-09-26T04:28:59.090Z,1.30
2022-09-26T04:31:48.096Z,1.20
2022-09-26T04:34:21.351Z,1.40
2022-09-26T04:36:53.009Z,1.50
2022-09-26T04:39:24.225Z,1.33
2022-09-26T04:41:53.246Z,1.30
2022-09-26T04:44:22.091Z,1.20
2022-09-26T04:46:50.449Z,1.52
2022-09-26T04:49:20.849Z,1.40
2022-09-26T04:51:48.890Z,1.48
2022-09-26T04:54:17.329Z,2.15
2022-09-26T04:56:47.337Z,1.60
2022-09-26T04:59:15.444Z,1.70
2022-09-26T05:01:56.936Z,1.70
2022-09-26T05:04:33.449Z,1.55
2022-09-26T05:07:01.548Z,1.35
2022-09-26T05:09:35.762Z,1.13
2022-09-26T05:12:09.581Z,1.15
2022-09-26T05:14:39.728Z,1.13
2022-09-26T05:17:11.070Z,1.20
2022-09-26T05:19:39.881Z,0.90
2022-09-26T05:22:22.844Z,1.05
2022-09-26T05:25:08.126Z,1.10
2022-09-26T05:27:39.049Z,1.30
2022-09-26T05:30:08.393Z,1.38
2022-09-26T05:32:36.362Z,2.65
2022-09-26T05:35:05.660Z,2.65
2022-09-26T05:37:37.971Z,5.75
2022-09-26T05:40:24.479Z,7.30
2022-09-26T05:43:01.189Z,6.07
2022-09-26T05:45:31.273Z,7.55
2022-09-26T05:48:01.176Z,7.32
2022-09-26T05:50:29.145Z,7.32
2022-09-26T05:52:58.555Z,6.18
2022-09-26T05:55:27.332Z,6.03
2022-09-26T05:58:06.316Z,4.63
2022-09-26T06:00:54.509Z,3.72
2022-09-26T06:03:23.038Z,3.60
2022-09-26T06:06:08.795Z,2.72
2022-09-26T06:08:38.998Z,1.85
2022-09-26T06:11:22.622Z,1.67
2022-09-26T06:13:53.001Z,1.75
2022-09-26T06:16:22.343Z,2.00
2022-09-26T06:18:52.571Z,2.20
2022-09-26T06:21:21.339Z,2.17
2022-09-26T06:23:53.261Z,2.30
2022-09-26T06:26:24.118Z,2.95
2022-09-26T06:28:59.791Z,2.60
2022-09-26T06:31:30.494Z,2.50
2022-09-26T06:34:12.930Z,2.42
2022-09-26T06:37:16.212Z,2.35
2022-09-26T06:39:44.218Z,3.28
2022-09-26T06:42:12.969Z,4.50
2022-09-26T06:45:16.733Z,5.03
2022-09-26T06:48:03.451Z,5.07
2022-09-26T06:50:36.415Z,5.78
2022-09-26T06:53:07.486Z,5.88
2022-09-26T06:55:40.930Z,5.93
2022-09-26T06:58:09.182Z,5.47
2022-09-26T07:00:52.421Z,6.00
2022-09-26T07:03:45.336Z,5.60
2022-09-26T07:06:36.627Z,5.95
2022-09-26T07:09:09.897Z,5.43
2022-09-26T07:12:13.574Z,4.57
2022-09-26T07:14:38.271Z,3.30
2022-09-26T07:17:20.658Z,3.05
2022-09-26T07:20:12.536Z,2.90
2022-09-26T07:23:04.448Z,2.65
2022-09-26T07:25:33.516Z,2.08
2022-09-26T07:28:03.273Z,1.98
2022-09-26T07:30:58.191Z,2.70
2022-09-26T07:33:35.296Z,2.83
2022-09-26T07:36:08.595Z,2.95
2022-09-26T07:38:36.672Z,2.95
2022-09-26T07:41:07.391Z,3.15
2022-09-26T07:44:21.753Z,3.80
2022-09-26T07:46:42.397Z,4.07
2022-09-26T07:49:30.117Z,4.68
2022-09-26T07:52:15.144Z,4.38
2022-09-26T07:54:51.339Z,7.07
2022-09-26T07:57:38.958Z,5.50
2022-09-26T08:00:21.486Z,6.35
2022-09-26T08:03:09.864Z,7.03
2022-09-26T08:05:40.621Z,6.82
2022-09-26T08:08:08.738Z,7.15
2022-09-26T08:11:01.548Z,6.03
2022-09-26T08:13:34.635Z,6.72
2022-09-26T08:16:23.134Z,7.00
2022-09-26T08:18:55.284Z,7.28
2022-09-26T08:21:26.729Z,8.13
2022-09-26T08:23:57.916Z,8.15
2022-09-26T08:26:48.390Z,8.07
2022-09-26T08:29:23.582Z,8.50
2022-09-26T08:31:54.792Z,7.75
2022-09-26T08:34:25.711Z,8.25
2022-09-26T08:37:14.527Z,7.95
2022-09-26T08:40:01.227Z,7.78
2022-09-26T08:43:04.336Z,8.27
2022-09-26T08:46:41.543Z,7.68
2022-09-26T08:49:49.008Z,6.82
2022-09-26T08:52:34.318Z,7.35
2022-09-26T08:55:07.269Z,6.93
2022-09-26T08:57:41.124Z,7.18
2022-09-26T09:00:20.236Z,7.40
2022-09-26T09:03:15.702Z,7.80
2022-09-26T09:05:49.823Z,7.43
2022-09-26T09:08:23.958Z,8.23
2022-09-26T09:11:19.376Z,7.18
2022-09-26T09:14:06.540Z,8.25
2022-09-26T09:17:05.040Z,7.47
2022-09-26T09:20:16.136Z,8.50
2022-09-26T09:23:24.579Z,8.55
2022-09-26T09:29:22.886Z,7.60
2022-09-26T09:32:22.670Z,8.10
2022-09-26T09:35:03.594Z,8.45
2022-09-26T09:37:54.916Z,8.98
2022-09-26T09:40:45.547Z,9.07
2022-09-26T09:43:18.227Z,8.77
2022-09-26T09:45:49.926Z,8.95
2022-09-26T09:48:18.834Z,8.55
2022-09-26T09:50:56.467Z,8.68
2022-09-26T09:53:48.208Z,8.55
2022-09-26T09:56:28.784Z,8.57
2022-09-26T09:59:11.545Z,8.23
2022-09-26T10:02:19.486Z,6.40
2022-09-26T10:04:56.522Z,6.28
2022-09-26T10:07:25.040Z,6.75
2022-09-26T10:10:19.947Z,6.60
2022-09-26T10:13:22.531Z,7.03
2022-09-26T10:16:18.162Z,6.47
2022-09-26T10:19:03.577Z,6.13
2022-09-26T10:21:35.190Z,6.72
2022-09-26T10:24:05.096Z,6.88
2022-09-26T10:26:49.479Z,5.50
2022-09-26T10:29:35.203Z,4.72
2022-09-26T10:32:04.648Z,4.55
2022-09-26T10:34:35.232Z,4.30
2022-09-26T10:37:22.493Z,4.07
2022-09-26T10:40:12.853Z,4.20
2022-09-26T10:42:43.210Z,3.97
2022-09-26T10:45:17.576Z,4.00
2022-09-26T10:48:13.671Z,4.45
2022-09-26T10:51:02.075Z,4.18
2022-09-26T10:53:37.530Z,4.40
2022-09-26T10:56:12.572Z,4.13
2022-09-26T10:58:43.564Z,4.63
2022-09-26T11:01:25.691Z,3.47
2022-09-26T11:03:56.327Z,4.57
2022-09-26T11:06:26.728Z,4.22
2022-09-26T11:09:03.364Z,3.95
2022-09-26T11:11:52.445Z,3.50
2022-09-26T11:14:29.166Z,3.20
2022-09-26T11:17:13.469Z,4.00
2022-09-26T11:19:54.528Z,4.30
2022-09-26T11:22:33.807Z,3.75
2022-09-26T11:25:08.007Z,3.42
2022-09-26T11:27:44.005Z,3.50
2022-09-26T11:30:20.766Z,3.80
2022-09-26T11:33:13.480Z,3.00
2022-09-26T11:36:45.293Z,2.67
2022-09-26T11:39:28.128Z,2.83
2022-09-26T11:42:13.795Z,3.13
2022-09-26T11:44:59.625Z,2.53
2022-09-26T11:48:10.994Z,2.58
2022-09-26T11:51:09.413Z,2.80
2022-09-26T11:54:00.958Z,3.90
2022-09-26T11:56:53.159Z,2.50
2022-09-26T11:59:39.310Z,1.95
2022-09-26T12:02:24.319Z,2.10
2022-09-26T12:05:27.267Z,2.05
2022-09-26T12:08:06.847Z,2.00
2022-09-26T12:10:47.951Z,2.33
2022-09-26T12:13:35.077Z,2.53
2022-09-26T12:16:12.326Z,2.47
2022-09-26T12:18:48.852Z,2.53
2022-09-26T12:21:27.394Z,2.58
2022-09-26T12:24:00.733Z,2.67
2022-09-26T12:26:38.120Z,2.50
2022-09-26T12:29:19.851Z,2.42
2022-09-26T12:32:02.845Z,1.70
2022-09-26T12:34:50.658Z,2.33
2022-09-26T12:37:41.064Z,2.40
2022-09-26T12:40:24.640Z,2.15
2022-09-26T12:43:19.913Z,2.10
2022-09-26T12:46:07.571Z,2.53
2022-09-26T12:48:49.824Z,2.17
2022-09-26T12:51:28.804Z,2.90
2022-09-26T12:54:21.594Z,2.30
2022-09-26T12:56:54.756Z,2.30
2022-09-26T12:59:46.786Z,2.53
2022-09-26T13:02:44.185Z,2.85
2022-09-26T13:05:44.311Z,2.38
2022-09-26T13:08:21.642Z,2.38
2022-09-26T13:11:07.108Z,2.30
2022-09-26T13:14:09.097Z,2.30
2022-09-26T13:16:50.996Z,2.35
2022-09-26T13:19:27.779Z,2.30
2022-09-26T13:21:59.454Z,1.67
2022-09-26T13:24:35.794Z,1.98
2022-09-26T13:27:14.768Z,2.28
2022-09-26T13:29:47.832Z,2.65
2022-09-26T13:32:22.807Z,1.83
2022-09-26T13:34:57.109Z,1.83
2022-09-26T13:37:38.361Z,1.83
2022-09-26T13:40:21.179Z,2.20
2022-09-26T13:43:03.067Z,1.60
2022-09-26T13:45:46.536Z,2.10
2022-09-26T13:48:20.846Z,1.90
2022-09-26T13:50:55.894Z,1.63
2022-09-26T13:53:32.410Z,1.88
2022-09-26T13:56:42.820Z,1.45
2022-09-26T13:59:54.271Z,1.50
2022-09-26T14:02:29.245Z,1.52
2022-09-26T14:05:29.571Z,1.45
2022-09-26T14:08:15.244Z,1.95
2022-09-26T14:10:53.254Z,2.25
2022-09-26T14:13:34.645Z,1.80
2022-09-26T14:16:06.221Z,1.95
2022-09-26T14:18:55.220Z,2.13
2022-09-26T14:21:39.872Z,2.30
2022-09-26T14:24:38.575Z,2.30
2022-09-26T14:27:27.273Z,2.20
2022-09-26T14:30:01.287Z,1.92
2022-09-26T14:32:38.192Z,1.75
2022-09-26T14:35:18.788Z,1.77
2022-09-26T14:37:50.191Z,1.98
2022-09-26T14:40:35.050Z,2.40
2022-09-26T14:43:14.033Z,2.45
2022-09-26T14:45:51.202Z,2.00
2022-09-26T14:48:33.345Z,2.38
2022-09-26T14:51:05.615Z,2.20
2022-09-26T14:53:40.609Z,2.25
2022-09-26T14:56:11.680Z,2.30
2022-09-26T14:58:50.130Z,2.17
2022-09-26T15:01:26.305Z,2.38
2022-09-26T15:03:59.167Z,2.15
2022-09-26T15:06:30.182Z,2.38
2022-09-26T15:08:59.741Z,2.30
2022-09-26T15:11:34.776Z,2.75
2022-09-26T15:14:14.952Z,2.72
2022-09-26T15:16:48.379Z,2.40
2022-09-26T15:19:22.116Z,2.90
2022-09-26T15:21:55.706Z,2.85
2022-09-26T15:24:26.461Z,3.00
2022-09-26T15:26:57.002Z,3.05
2022-09-26T15:29:25.455Z,3.40
2022-09-26T15:31:55.926Z,3.15
2022-09-26T15:34:36.701Z,2.67
2022-09-26T15:37:15.647Z,2.85
2022-09-26T15:39:44.149Z,2.58
2022-09-26T15:42:42.234Z,2.80
2022-09-26T15:45:33.450Z,2.75
2022-09-26T15:48:04.284Z,2.50
2022-09-26T15:50:49.435Z,3.13
2022-09-26T15:53:24.346Z,3.05
2022-09-26T15:55:56.820Z,2.78
2022-09-26T15:58:32.922Z,2.70
2022-09-26T16:01:01.576Z,2.53
2022-09-26T16:03:40.647Z,2.80
2022-09-26T16:06:29.138Z,2.38
2022-09-26T16:09:04.988Z,2.67
2022-09-26T16:11:34.478Z,2.38
2022-09-26T16:14:02.759Z,3.17
2022-09-26T16:16:33.372Z,2.17
2022-09-26T16:19:04.525Z,2.40
2022-09-26T16:21:37.668Z,1.83
2022-09-26T16:24:29.978Z,1.98
2022-09-26T16:26:58.114Z,1.80
2022-09-26T16:29:34.827Z,1.55
2022-09-26T16:32:04.149Z,1.90
2022-09-26T16:34:32.373Z,1.80
2022-09-26T16:37:01.753Z,1.70
2022-09-26T16:39:32.522Z,1.70
2022-09-26T16:42:03.457Z,2.10
2022-09-26T16:44:35.905Z,1.83
2022-09-26T16:47:06.237Z,1.63
2022-09-26T16:49:46.141Z,1.95
2022-09-26T16:52:35.672Z,1.90
2022-09-26T16:55:07.078Z,2.20
2022-09-26T16:57:38.321Z,2.20
2022-09-26T17:00:33.145Z,1.77
2022-09-26T17:03:01.192Z,1.60
2022-09-26T17:05:29.332Z,2.13
2022-09-26T17:07:58.762Z,1.33
2022-09-26T17:10:27.316Z,1.90
2022-09-26T17:12:56.384Z,2.20
2022-09-26T17:15:30.900Z,2.97
2022-09-26T17:18:01.357Z,4.20
2022-09-26T17:20:29.979Z,2.75
2022-09-26T17:23:07.991Z,2.33
2022-09-26T17:25:52.024Z,2.88
2022-09-26T17:28:30.404Z,2.85
2022-09-26T17:31:06.202Z,2.60
2022-09-26T17:33:37.900Z,2.35
2022-09-26T17:36:10.747Z,1.70
2022-09-26T17:38:41.313Z,1.60
2022-09-26T17:41:12.535Z,2.08
2022-09-26T17:43:40.733Z,1.70
2022-09-26T17:46:16.363Z,1.92
2022-09-26T17:48:45.937Z,1.75
2022-09-26T17:51:14.983Z,2.15
2022-09-26T17:53:50.882Z,1.80
2022-09-26T17:56:20.023Z,2.05
2022-09-26T17:58:51.331Z,1.83
2022-09-26T18:01:23.341Z,3.17
2022-09-26T18:03:54.545Z,2.88
2022-09-26T18:06:26.042Z,2.35
2022-09-26T18:08:59.719Z,2.28
2022-09-26T18:11:28.252Z,2.55
2022-09-26T18:13:56.950Z,2.15
2022-09-26T18:16:25.430Z,2.22
2022-09-26T18:18:53.418Z,1.98
2022-09-26T18:21:24.352Z,2.05
2022-09-26T18:23:58.052Z,2.28
2022-09-26T18:29:02.422Z,2.17
2022-09-26T18:31:32.978Z,2.03
2022-09-26T18:34:03.132Z,1.80
2022-09-26T18:36:33.899Z,1.90
2022-09-26T18:39:03.366Z,2.05
2022-09-26T18:41:31.522Z,1.90
2022-09-26T18:44:03.013Z,1.75
2022-09-26T18:46:31.619Z,1.52
2022-09-26T18:49:06.268Z,1.92
2022-09-26T18:51:34.976Z,2.10
2022-09-26T18:54:10.731Z,2.10
2022-09-26T18:56:56.915Z,2.17
2022-09-26T18:59:28.916Z,2.40
2022-09-26T19:01:58.366Z,3.42
2022-09-26T19:04:27.267Z,2.42
2022-09-26T19:07:00.883Z,2.55
2022-09-26T19:09:34.367Z,2.67
2022-09-26T19:12:03.143Z,2.35
2022-09-26T19:14:32.312Z,2.72
2022-09-26T19:17:00.591Z,2.60
2022-09-26T19:19:30.314Z,2.17
2022-09-26T19:22:00.526Z,2.05
2022-09-26T19:24:35.402Z,1.80
2022-09-26T19:27:07.447Z,3.17
2022-09-26T19:29:39.861Z,4.30
2022-09-26T19:32:13.220Z,4.97
2022-09-26T19:34:41.377Z,4.28
2022-09-26T19:37:10.583Z,4.32
2022-09-26T19:39:40.102Z,3.97
2022-09-26T19:42:08.167Z,5.35
2022-09-26T19:44:36.207Z,5.18
2022-09-26T19:47:04.822Z,5.20
2022-09-26T19:49:33.313Z,4.03
2022-09-26T19:52:02.531Z,3.17
2022-09-26T19:54:30.635Z,2.70
2022-09-26T19:57:00.200Z,1.73
2022-09-26T19:59:28.203Z,1.52
2022-09-26T20:01:56.400Z,1.60
2022-09-26T20:04:24.521Z,1.60
2022-09-26T20:06:52.511Z,1.92
2022-09-26T20:09:21.395Z,1.92
2022-09-26T20:11:49.599Z,1.70
2022-09-26T20:14:24.901Z,2.10
2022-09-26T20:16:55.359Z,1.80
2022-09-26T20:19:29.456Z,1.80
2022-09-26T20:22:01.886Z,1.73
2022-09-26T20:24:31.984Z,2.05
2022-09-26T20:27:02.971Z,2.10
2022-09-26T20:29:52.472Z,1.70
2022-09-26T20:32:19.502Z,1.73
2022-09-26T20:34:48.323Z,1.88
2022-09-26T20:37:16.602Z,1.85
2022-09-26T20:39:46.943Z,1.48
2022-09-26T20:42:18.715Z,1.50
2022-09-26T20:44:50.828Z,1.45
2022-09-26T20:47:21.255Z,1.63
2022-09-26T20:49:53.915Z,1.20
2022-09-26T20:52:24.391Z,1.60
2022-09-26T20:54:53.261Z,1.40
2022-09-26T20:57:22.281Z,1.27
2022-09-26T20:59:52.696Z,1.15
2022-09-26T21:02:29.908Z,1.23
2022-09-26T21:05:00.262Z,1.27
2022-09-26T21:07:29.991Z,1.25
2022-09-26T21:09:57.938Z,1.00
2022-09-26T21:12:26.130Z,1.42
2022-09-26T21:14:55.479Z,1.27
2022-09-26T21:17:28.129Z,1.27
2022-09-26T21:19:56.686Z,1.20
2022-09-26T21:22:47.753Z,1.40
2022-09-26T21:25:18.212Z,1.50
2022-09-26T21:27:46.705Z,1.70
2022-09-26T21:30:17.414Z,1.48
2022-09-26T21:32:49.415Z,1.33
2022-09-26T21:35:19.551Z,1.20
2022-09-26T21:37:51.588Z,1.48
2022-09-26T21:40:22.616Z,1.40
2022-09-26T21:42:54.375Z,1.60
2022-09-26T21:45:27.677Z,1.55
2022-09-26T21:47:56.336Z,1.50
2022-09-26T21:50:26.995Z,1.40
2022-09-26T21:53:01.036Z,1.60
2022-09-26T21:55:35.223Z,1.75
2022-09-26T21:58:08.755Z,1.83
2022-09-26T22:00:38.108Z,1.73
2022-09-26T22:03:06.747Z,2.60
2022-09-26T22:05:34.744Z,1.90
2022-09-26T22:08:03.011Z,1.52
2022-09-26T22:10:31.332Z,1.92
2022-09-26T22:12:59.569Z,2.00
2022-09-26T22:15:27.543Z,2.33
2022-09-26T22:17:57.911Z,2.05
2022-09-26T22:20:26.471Z,1.77
2022-09-26T22:22:54.455Z,2.38
2022-09-26T22:25:22.466Z,2.15
2022-09-26T22:27:50.447Z,2.38
2022-09-26T22:30:18.518Z,1.70
2022-09-26T22:32:46.535Z,1.85
2022-09-26T22:35:15.995Z,1.60
2022-09-26T22:37:44.204Z,1.85
2022-09-26T22:40:12.268Z,1.65
2022-09-26T22:42:40.374Z,1.73
2022-09-26T22:45:09.375Z,2.00
2022-09-26T22:47:37.346Z,1.75
2022-09-26T22:50:06.058Z,1.77
2022-09-26T22:52:35.674Z,1.73
2022-09-26T22:55:03.633Z,2.40
2022-09-26T22:57:32.940Z,2.15
2022-09-26T23:00:01.901Z,1.90
2022-09-26T23:02:29.929Z,2.10
2022-09-26T23:04:57.909Z,1.92
2022-09-26T23:07:25.927Z,1.77
2022-09-26T23:09:55.229Z,1.58
2022-09-26T23:12:23.220Z,1.30
2022-09-26T23:14:51.198Z,1.65
2022-09-26T23:17:19.150Z,1.58
2022-09-26T23:19:47.120Z,1.50
2022-09-26T23:22:15.412Z,1.67
2022-09-26T23:24:43.403Z,1.50
2022-09-26T23:27:12.753Z,2.00
2022-09-26T23:29:41.369Z,1.50
2022-09-26T23:32:09.335Z,1.70
2022-09-26T23:34:37.320Z,2.00
2022-09-26T23:37:05.301Z,1.60
2022-09-26T23:39:33.261Z,1.27
2022-09-26T23:42:01.290Z,1.15
2022-09-26T23:44:32.643Z,1.73
2022-09-26T23:47:02.642Z,1.40
2022-09-26T23:49:30.658Z,1.23
2022-09-26T23:51:58.682Z,1.33
2022-09-26T23:54:26.692Z,2.17
2022-09-26T23:56:54.696Z,2.05
2022-09-26T23:59:22.646Z,1.63
